Time;durP1;ratioP1;P1;durP2;ratioP2;P2;SDS_P1;SDS_P2;PMS_P1;PMS_P2;Temp;Humidity;BMP_temperature;BMP_pressure;BME280_temperature;BME280_humidity;BME280_pressure;Samples;Min_cycle;Max_cycle;Signal;HPM_P1;HPM_P2
2021/03/20 00:00:52;;;;;;;;;5.00;4.33;;;;;;;;5046530;27;111896;-73
2021/03/20 00:03:19;;;;;;;;;6.00;5.67;;;;;;;;5051055;27;114897;-74
2021/03/20 08:27:36;;;;;;;;;4.00;3.33;;;;;;;;5031564;27;856118;-79
2021/03/20 08:30:21;;;;;;;;;3.33;3.00;;;;;;;;5041998;27;114182;-82
2021/03/20 08:33:02;;;;;;;;;7.00;3.00;;;;;;;;5034787;27;112022;-81
2021/03/20 08:35:33;;;;;;;;;2.00;2.00;;;;;;;;5041794;27;113407;-81
2021/03/20 08:38:16;;;;;;;;;1.75;1.00;;;;;;;;5042961;27;114360;-83
2021/03/20 08:40:47;;;;;;;;;2.00;1.00;;;;;;;;5048736;27;112715;-82
2021/03/20 08:43:28;;;;;;;;;1.75;1.75;;;;;;;;5042716;27;113359;-79
2021/03/20 08:45:57;;;;;;;;;5.25;3.00;;;;;;;;5043958;27;114047;-82
2021/03/20 08:48:33;;;;;;;;;3.00;3.00;;;;;;;;5059298;27;111852;-85
2021/03/20 08:51:04;;;;;;;;;2.25;2.00;;;;;;;;5054459;27;112837;-79
2021/03/20 08:53:34;;;;;;;;;3.00;3.00;;;;;;;;5048469;27;111869;-82
2021/03/20 08:56:03;;;;;;;;;3.00;2.75;;;;;;;;5042010;27;113463;-77
2021/03/20 08:58:38;;;;;;;;;7.00;7.00;;;;;;;;5042402;27;114512;-74
2021/03/20 09:01:08;;;;;;;;;6.75;5.75;;;;;;;;5040980;27;112032;-74
2021/03/20 09:03:36;;;;;;;;;7.50;6.00;;;;;;;;5041097;27;117973;-76
2021/03/20 09:06:08;;;;;;;;;6.00;5.25;;;;;;;;5043376;27;114259;-72
2021/03/20 09:08:35;;;;;;;;;7.50;6.00;;;;;;;;5042168;27;112019;-71
2021/03/20 09:11:04;;;;;;;;;5.25;5.25;;;;;;;;5042636;27;113733;-72
2021/03/20 09:13:32;;;;;;;;;7.50;6.75;;;;;;;;5043362;27;111923;-71
2021/03/20 09:16:01;;;;;;;;;6.00;6.00;;;;;;;;5040223;27;113470;-71
2021/03/20 09:18:28;;;;;;;;;6.00;5.00;;;;;;;;5040398;27;113982;-71
2021/03/20 09:20:57;;;;;;;;;5.00;5.00;;;;;;;;5041032;27;111901;-68
2021/03/20 09:23:28;;;;;;;;;5.25;5.25;;;;;;;;5040530;27;113455;-70
2021/03/20 09:25:55;;;;;;;;;7.50;5.75;;;;;;;;5039790;27;114230;-80
2021/03/20 09:28:29;;;;;;;;;6.75;6.25;;;;;;;;5040931;27;111999;-76
2021/03/20 09:30:57;;;;;;;;;6.00;6.00;;;;;;;;5040981;27;113467;-77
2021/03/20 09:33:33;;;;;;;;;7.00;5.75;;;;;;;;5045314;27;114188;-78
2021/03/20 09:38:34;;;;;;;;;5.00;5.00;;;;;;;;5083885;27;112176;-75
2021/03/20 09:41:01;;;;;;;;;7.00;4.50;;;;;;;;5060679;27;113978;-76
2021/03/20 09:43:35;;;;;;;;;8.00;5.75;;;;;;;;5065230;27;112465;-79
2021/03/20 09:46:20;;;;;;;;;4.00;4.00;;;;;;;;5063116;27;113718;-72
2021/03/20 09:48:46;;;;;;;;;5.75;4.50;;;;;;;;5060845;27;114628;-71
2021/03/20 09:51:30;;;;;;;;;4.67;4.67;;;;;;;;5063182;27;112099;-72
2021/03/20 09:53:57;;;;;;;;;4.00;4.00;;;;;;;;5061726;27;113479;-70
2021/03/20 09:56:28;;;;;;;;;5.67;5.33;;;;;;;;5061760;27;113692;-71
2021/03/20 09:58:54;;;;;;;;;5.00;5.00;;;;;;;;5065350;27;113382;-71
2021/03/20 10:01:21;;;;;;;;;4.67;4.00;;;;;;;;5062595;27;114535;-73
2021/03/20 10:03:49;;;;;;;;;6.00;6.00;;;;;;;;5065076;27;113146;-74
2021/03/20 10:06:26;;;;;;;;;5.00;5.00;;;;;;;;5063520;27;113875;-75
2021/03/20 10:09:07;;;;;;;;;5.00;4.00;;;;;;;;5061304;27;114155;-73
2021/03/20 10:11:35;;;;;;;;;5.00;5.00;;;;;;;;5049502;27;112023;-72
2021/03/20 10:14:02;;;;;;;;;5.33;5.33;;;;;;;;5060502;27;113046;-72
2021/03/20 10:16:30;;;;;;;;;4.00;4.00;;;;;;;;5062001;27;114620;-73
2021/03/20 10:18:58;;;;;;;;;6.00;5.00;;;;;;;;5061149;27;112388;-73
2021/03/20 10:21:26;;;;;;;;;6.00;6.00;;;;;;;;5064500;27;113916;-72
2021/03/20 10:23:58;;;;;;;;;5.67;5.00;;;;;;;;5062139;27;112365;-75
2021/03/20 10:26:27;;;;;;;;;5.00;5.00;;;;;;;;5061352;27;113674;-73
2021/03/20 10:28:56;;;;;;;;;7.25;6.00;;;;;;;;5060930;27;114170;-73
2021/03/20 10:31:22;;;;;;;;;8.75;5.00;;;;;;;;5056762;27;112556;-74
2021/03/20 10:33:49;;;;;;;;;5.00;5.00;;;;;;;;5068685;27;113641;-73
2021/03/20 10:36:20;;;;;;;;;5.25;5.25;;;;;;;;5059775;27;114838;-72
2021/03/20 10:38:47;;;;;;;;;4.00;4.00;;;;;;;;5064905;27;111794;-73
2021/03/20 10:41:15;;;;;;;;;5.75;5.75;;;;;;;;5060779;27;113588;-74
2021/03/20 10:43:43;;;;;;;;;8.00;6.67;;;;;;;;5064979;27;114041;-71
2021/03/20 10:46:16;;;;;;;;;7.00;4.75;;;;;;;;5069388;27;115392;-73
2021/03/20 10:48:42;;;;;;;;;7.00;6.00;;;;;;;;5051940;27;114460;-75
2021/03/20 10:51:08;;;;;;;;;6.00;4.75;;;;;;;;5047427;27;111882;-77
2021/03/20 10:53:39;;;;;;;;;5.75;5.75;;;;;;;;5047969;27;113785;-73
2021/03/20 10:56:05;;;;;;;;;7.25;7.00;;;;;;;;5049797;27;114708;-76
2021/03/20 10:58:39;;;;;;;;;7.50;7.50;;;;;;;;5048790;27;111950;-72
2021/03/20 11:01:05;;;;;;;;;7.00;7.00;;;;;;;;5049258;27;113574;-79
2021/03/20 11:03:35;;;;;;;;;8.00;7.00;;;;;;;;5048442;27;114591;-76
2021/03/20 11:06:08;;;;;;;;;7.00;7.00;;;;;;;;5051159;27;111921;-78
2021/03/20 11:08:34;;;;;;;;;7.00;7.00;;;;;;;;5046891;27;114237;-74
2021/03/20 11:11:08;;;;;;;;;8.75;8.75;;;;;;;;5046466;27;112121;-75
2021/03/20 11:13:37;;;;;;;;;9.50;8.00;;;;;;;;5048687;27;113513;-75
2021/03/20 11:16:05;;;;;;;;;7.00;7.00;;;;;;;;5043488;27;114877;-76
2021/03/20 11:18:34;;;;;;;;;6.50;6.50;;;;;;;;5047384;27;111879;-74
2021/03/20 11:21:01;;;;;;;;;8.25;8.00;;;;;;;;5044099;27;114139;-75
2021/03/20 11:23:29;;;;;;;;;7.00;7.00;;;;;;;;5045935;27;114641;-76
2021/03/20 11:25:55;;;;;;;;;13.25;13.25;;;;;;;;5044512;27;112033;-76
2021/03/20 11:28:28;;;;;;;;;12.25;12.25;;;;;;;;5049007;27;113930;-79
2021/03/20 11:30:54;;;;;;;;;11.50;11.00;;;;;;;;5048174;27;112573;-81
2021/03/20 11:33:22;;;;;;;;;8.00;5.25;;;;;;;;5045734;27;113585;-78
2021/03/20 11:35:50;;;;;;;;;8.00;8.00;;;;;;;;5044891;27;115462;-78
2021/03/20 11:38:18;;;;;;;;;7.75;6.75;;;;;;;;5046718;27;111934;-80
2021/03/20 11:40:45;;;;;;;;;9.00;6.00;;;;;;;;5049926;27;113592;-81
2021/03/20 11:43:16;;;;;;;;;7.00;7.00;;;;;;;;5043368;27;114110;-75
2021/03/20 12:02:02;;;;;;;;;8.25;8.25;;;;;;;;5087068;27;112224;-81
2021/03/20 12:04:29;;;;;;;;;11.00;10.00;;;;;;;;5064117;27;113933;-80
2021/03/20 12:07:10;;;;;;;;;12.00;9.00;;;;;;;;5069434;27;111812;-81
2021/03/20 12:09:36;;;;;;;;;6.00;6.00;;;;;;;;5070225;27;113427;-75
2021/03/20 12:12:03;;;;;;;;;10.00;9.00;;;;;;;;5065495;27;113938;-80
2021/03/20 12:14:34;;;;;;;;;9.75;8.75;;;;;;;;5067364;27;112178;-80
2021/03/20 12:17:21;;;;;;;;;9.75;9.00;;;;;;;;5066769;27;112248;-79
2021/03/20 12:19:56;;;;;;;;;9.75;9.50;;;;;;;;5058932;27;114340;-78
2021/03/20 12:22:29;;;;;;;;;6.50;6.50;;;;;;;;5065143;27;112027;-82
2021/03/20 12:25:00;;;;;;;;;11.00;9.00;;;;;;;;5061988;27;114429;-75
2021/03/20 12:27:31;;;;;;;;;11.75;10.00;;;;;;;;5058796;27;111845;-73
2021/03/20 12:30:01;;;;;;;;;7.25;6.00;;;;;;;;5058569;27;113402;-74
2021/03/20 12:32:32;;;;;;;;;9.00;9.00;;;;;;;;5061896;27;114007;-72
2021/03/20 12:35:13;;;;;;;;;12.25;10.00;;;;;;;;5058126;27;111924;-73
2021/03/20 12:37:39;;;;;;;;;9.50;9.00;;;;;;;;5060304;27;112478;-71
2021/03/20 12:40:06;;;;;;;;;11.50;10.50;;;;;;;;5061006;27;114087;-73
2021/03/20 12:42:32;;;;;;;;;10.50;9.25;;;;;;;;5060427;27;112710;-73
2021/03/20 12:44:58;;;;;;;;;5.75;5.75;;;;;;;;5067085;27;113496;-75
2021/03/20 12:47:24;;;;;;;;;9.25;9.00;;;;;;;;5063265;27;111992;-75
2021/03/20 12:49:51;;;;;;;;;10.50;9.25;;;;;;;;5063078;27;113444;-78
2021/03/20 12:52:19;;;;;;;;;10.00;8.00;;;;;;;;5062738;27;114165;-79
2021/03/20 12:54:47;;;;;;;;;11.50;7.75;;;;;;;;5064267;27;112318;-73
2021/03/20 12:57:21;;;;;;;;;9.75;8.00;;;;;;;;5066051;27;113960;-73
2021/03/20 12:59:47;;;;;;;;;13.00;11.00;;;;;;;;5061633;27;114065;-74
2021/03/20 13:02:13;;;;;;;;;7.50;7.00;;;;;;;;5063618;27;111935;-74
2021/03/20 13:04:41;;;;;;;;;8.25;7.50;;;;;;;;5061258;27;113607;-75
2021/03/20 13:07:08;;;;;;;;;11.00;8.00;;;;;;;;5065345;27;114239;-76
2021/03/20 13:09:35;;;;;;;;;12.75;10.00;;;;;;;;5060416;27;113344;-79
2021/03/20 13:12:06;;;;;;;;;9.50;8.25;;;;;;;;5054515;27;114458;-79
2021/03/20 13:14:33;;;;;;;;;10.00;9.75;;;;;;;;5050191;27;112315;-74
2021/03/20 13:16:59;;;;;;;;;7.50;7.50;;;;;;;;5048373;27;113832;-73
2021/03/20 13:19:25;;;;;;;;;14.50;11.00;;;;;;;;5046915;27;113898;-73
2021/03/20 13:21:51;;;;;;;;;19.25;14.25;;;;;;;;5047428;27;113160;-73
2021/03/20 13:24:17;;;;;;;;;14.50;14.50;;;;;;;;5045787;27;112402;-75
2021/03/20 13:26:44;;;;;;;;;13.00;13.00;;;;;;;;5051462;27;113941;-74
2021/03/20 13:29:10;;;;;;;;;12.25;11.25;;;;;;;;5051363;27;111886;-73
2021/03/20 13:31:36;;;;;;;;;14.75;14.25;;;;;;;;5044866;27;114225;-72
2021/03/20 13:34:02;;;;;;;;;13.50;11.50;;;;;;;;5045823;27;113545;-73
2021/03/20 13:36:29;;;;;;;;;11.25;10.25;;;;;;;;5045496;27;113947;-73
2021/03/20 13:38:55;;;;;;;;;14.50;11.50;;;;;;;;5046248;27;114489;-73
2021/03/20 13:41:22;;;;;;;;;10.25;10.25;;;;;;;;5045566;27;113563;-72
2021/03/20 13:43:48;;;;;;;;;11.50;10.00;;;;;;;;5046669;27;113470;-72
2021/03/20 13:46:15;;;;;;;;;11.00;9.25;;;;;;;;5045722;27;114678;-76
2021/03/20 13:48:41;;;;;;;;;10.50;9.00;;;;;;;;5047262;27;112752;-72
2021/03/20 13:51:08;;;;;;;;;13.00;11.00;;;;;;;;5048819;27;114191;-72
2021/03/20 13:53:34;;;;;;;;;10.75;8.00;;;;;;;;5044580;27;111870;-72
2021/03/20 13:56:01;;;;;;;;;9.00;8.50;;;;;;;;5045424;27;113751;-72
2021/03/20 13:58:27;;;;;;;;;10.50;8.75;;;;;;;;5044527;27;114364;-73
2021/03/20 14:00:55;;;;;;;;;9.25;7.75;;;;;;;;5044970;27;112075;-72
2021/03/20 14:03:21;;;;;;;;;11.75;8.00;;;;;;;;5044183;27;113743;-72
2021/03/20 14:05:48;;;;;;;;;10.00;8.50;;;;;;;;5048138;27;114046;-72
2021/03/20 14:08:14;;;;;;;;;7.50;7.25;;;;;;;;5046087;27;111869;-72
2021/03/20 14:10:41;;;;;;;;;11.75;9.00;;;;;;;;5044204;27;113326;-72
2021/03/20 14:13:09;;;;;;;;;9.00;9.00;;;;;;;;5048920;27;113059;-73
2021/03/20 14:15:35;;;;;;;;;6.50;5.50;;;;;;;;5044418;27;113488;-73
2021/03/20 14:18:02;;;;;;;;;9.50;7.00;;;;;;;;5043849;27;114185;-73
2021/03/20 14:20:31;;;;;;;;;7.50;7.00;;;;;;;;5044793;27;112162;-73
2021/03/20 14:22:57;;;;;;;;;8.75;8.00;;;;;;;;5044785;27;114492;-72
2021/03/20 14:25:23;;;;;;;;;8.00;7.75;;;;;;;;5043253;27;114465;-73
2021/03/20 14:27:49;;;;;;;;;7.50;7.00;;;;;;;;5044419;27;112791;-74
2021/03/20 14:30:20;;;;;;;;;6.00;6.00;;;;;;;;5044862;27;113499;-73
2021/03/20 14:32:45;;;;;;;;;8.00;7.25;;;;;;;;5047430;27;114610;-72
2021/03/20 14:35:13;;;;;;;;;7.50;7.00;;;;;;;;5042353;27;113455;-73
2021/03/20 14:37:39;;;;;;;;;9.00;8.00;;;;;;;;5044014;27;114570;-73
2021/03/20 14:40:06;;;;;;;;;7.00;7.00;;;;;;;;5042830;27;111916;-73
2021/03/20 14:42:32;;;;;;;;;6.25;6.25;;;;;;;;5047617;27;113407;-74
2021/03/20 14:44:58;;;;;;;;;7.25;6.75;;;;;;;;5045694;27;114405;-76
2021/03/20 14:47:24;;;;;;;;;6.50;6.50;;;;;;;;5047498;27;111751;-77
2021/03/20 14:49:50;;;;;;;;;7.00;5.75;;;;;;;;5044948;27;113597;-78
2021/03/20 14:52:16;;;;;;;;;6.00;6.00;;;;;;;;5046850;27;114006;-76
2021/03/20 14:54:43;;;;;;;;;4.00;4.00;;;;;;;;5050814;27;113092;-77
2021/03/20 14:57:09;;;;;;;;;7.50;6.75;;;;;;;;5043994;27;113904;-75
2021/03/20 14:59:35;;;;;;;;;6.50;6.00;;;;;;;;5040578;27;111961;-75
2021/03/20 15:02:01;;;;;;;;;8.00;7.25;;;;;;;;5042991;27;112949;-72
2021/03/20 15:04:27;;;;;;;;;8.00;8.00;;;;;;;;5044690;27;114291;-73
2021/03/20 15:06:53;;;;;;;;;6.00;6.00;;;;;;;;5044625;27;111867;-73
2021/03/20 15:09:20;;;;;;;;;7.50;7.00;;;;;;;;5046123;27;113514;-73
2021/03/20 15:11:46;;;;;;;;;6.00;6.00;;;;;;;;5045214;27;114197;-74
2021/03/20 15:14:13;;;;;;;;;8.75;7.00;;;;;;;;5048745;27;112791;-73
2021/03/20 15:16:39;;;;;;;;;6.50;6.50;;;;;;;;5048691;27;113604;-78
2021/03/20 15:19:05;;;;;;;;;10.00;9.00;;;;;;;;5048188;27;112030;-72
2021/03/20 15:21:31;;;;;;;;;9.75;7.00;;;;;;;;5046006;27;113278;-74
2021/03/20 15:23:57;;;;;;;;;7.00;6.25;;;;;;;;5042025;27;112973;-75
2021/03/20 15:26:24;;;;;;;;;6.25;6.00;;;;;;;;5046662;27;112270;-73
2021/03/20 15:28:50;;;;;;;;;6.00;6.00;;;;;;;;5046525;27;113620;-75
2021/03/20 15:31:17;;;;;;;;;7.00;6.50;;;;;;;;5046915;27;114544;-70
2021/03/20 15:33:43;;;;;;;;;7.25;6.75;;;;;;;;5044537;27;111867;-71
2021/03/20 15:36:10;;;;;;;;;7.00;7.00;;;;;;;;5048252;27;113495;-71
2021/03/20 15:38:36;;;;;;;;;5.00;4.00;;;;;;;;5048493;27;114387;-70
2021/03/20 15:41:03;;;;;;;;;7.00;7.00;;;;;;;;5043156;27;112913;-69
2021/03/20 15:43:31;;;;;;;;;7.00;7.00;;;;;;;;5044922;27;113969;-70
2021/03/20 15:45:57;;;;;;;;;6.00;6.00;;;;;;;;5046421;27;112888;-73
2021/03/20 15:48:24;;;;;;;;;7.25;6.00;;;;;;;;5044263;27;113673;-74
2021/03/20 15:50:52;;;;;;;;;6.00;6.00;;;;;;;;5041220;27;114132;-72
2021/03/20 15:53:18;;;;;;;;;8.25;4.00;;;;;;;;5045332;27;112264;-69
2021/03/20 15:55:47;;;;;;;;;7.75;7.00;;;;;;;;5048169;27;113484;-73
2021/03/20 15:58:13;;;;;;;;;7.75;6.00;;;;;;;;5045797;27;114264;-75
2021/03/20 16:00:40;;;;;;;;;7.00;6.00;;;;;;;;5048738;27;112328;-75
2021/03/20 16:03:06;;;;;;;;;5.00;4.00;;;;;;;;5042648;27;114752;-74
2021/03/20 16:05:33;;;;;;;;;5.50;5.50;;;;;;;;5042237;27;112123;-73
2021/03/20 16:08:00;;;;;;;;;4.00;4.00;;;;;;;;5042833;27;113476;-74
2021/03/20 16:10:27;;;;;;;;;7.00;6.25;;;;;;;;5040185;27;114633;-74
2021/03/20 16:12:54;;;;;;;;;9.25;6.00;;;;;;;;5042462;27;112045;-75
2021/03/20 16:15:20;;;;;;;;;4.00;4.00;;;;;;;;5040891;27;113913;-75
2021/03/20 16:17:48;;;;;;;;;4.00;4.00;;;;;;;;5041679;27;113969;-75
2021/03/20 16:20:23;;;;;;;;;6.25;5.00;;;;;;;;5048386;27;111989;-70
2021/03/20 16:22:49;;;;;;;;;6.25;6.00;;;;;;;;5046122;27;114055;-70
2021/03/20 16:25:15;;;;;;;;;6.25;6.25;;;;;;;;5045161;27;111917;-70
2021/03/20 16:27:41;;;;;;;;;6.50;6.50;;;;;;;;5046591;27;113750;-75
2021/03/20 16:30:08;;;;;;;;;6.75;4.00;;;;;;;;5044451;27;114216;-75
2021/03/20 16:32:34;;;;;;;;;7.00;7.00;;;;;;;;5045570;27;112406;-75
2021/03/20 16:35:01;;;;;;;;;6.00;6.00;;;;;;;;5045351;27;113372;-75
2021/03/20 16:37:27;;;;;;;;;7.50;6.00;;;;;;;;5039051;27;113800;-76
2021/03/20 16:39:53;;;;;;;;;7.75;7.00;;;;;;;;5047112;27;112302;-77
2021/03/20 16:42:19;;;;;;;;;7.75;7.00;;;;;;;;5049226;27;113416;-76
2021/03/20 16:44:45;;;;;;;;;7.00;7.00;;;;;;;;5044704;27;112557;-76
2021/03/20 16:47:11;;;;;;;;;8.00;8.00;;;;;;;;5044381;27;113381;-75
2021/03/20 16:49:37;;;;;;;;;9.00;7.00;;;;;;;;5049116;27;114369;-76
2021/03/20 16:52:04;;;;;;;;;7.25;7.00;;;;;;;;5048125;27;113336;-73
2021/03/20 16:54:31;;;;;;;;;6.67;6.67;;;;;;;;5050274;27;113888;-74
2021/03/20 16:56:57;;;;;;;;;5.50;5.00;;;;;;;;5048583;27;113034;-73
2021/03/20 16:59:23;;;;;;;;;7.67;6.33;;;;;;;;5048982;27;112061;-72
2021/03/20 17:01:49;;;;;;;;;6.75;5.00;;;;;;;;5048071;27;113442;-73
2021/03/20 17:04:15;;;;;;;;;9.50;7.00;;;;;;;;5053908;27;113899;-69
2021/03/20 17:06:41;;;;;;;;;5.50;5.00;;;;;;;;5048684;27;113366;-68
2021/03/20 17:09:07;;;;;;;;;6.00;5.00;;;;;;;;5049099;27;114032;-69
2021/03/20 17:11:33;;;;;;;;;13.25;7.25;;;;;;;;5048658;27;112068;-71
2021/03/20 17:13:59;;;;;;;;;7.00;6.00;;;;;;;;5045992;27;113526;-70
2021/03/20 17:16:26;;;;;;;;;6.50;6.50;;;;;;;;5048570;27;113886;-70
2021/03/20 17:18:52;;;;;;;;;9.00;4.50;;;;;;;;5047844;27;112139;-69
2021/03/20 17:21:17;;;;;;;;;7.00;4.00;;;;;;;;5045220;27;113457;-69
2021/03/20 17:23:43;;;;;;;;;7.00;4.50;;;;;;;;5046546;27;113421;-73
2021/03/20 17:26:10;;;;;;;;;6.25;4.00;;;;;;;;5048815;27;111945;-74
2021/03/20 17:28:37;;;;;;;;;3.75;3.50;;;;;;;;5048100;27;114395;-79
2021/03/20 17:31:04;;;;;;;;;4.00;4.00;;;;;;;;5044400;27;112865;-73
2021/03/20 17:33:30;;;;;;;;;7.00;4.00;;;;;;;;5048159;27;113899;-76
2021/03/20 17:35:59;;;;;;;;;6.00;3.33;;;;;;;;5045430;27;114167;-73
2021/03/20 17:38:27;;;;;;;;;8.00;6.00;;;;;;;;5047957;27;111992;-74
2021/03/20 17:40:54;;;;;;;;;7.33;7.00;;;;;;;;5046154;27;112995;-76
2021/03/20 17:43:21;;;;;;;;;4.00;4.00;;;;;;;;5045904;27;114212;-73
2021/03/20 17:45:47;;;;;;;;;6.33;4.00;;;;;;;;5046681;27;113299;-76
2021/03/20 17:48:12;;;;;;;;;7.00;6.00;;;;;;;;5048789;27;113542;-79
2021/03/20 17:50:40;;;;;;;;;6.00;6.00;;;;;;;;5044678;27;112261;-71
2021/03/20 17:53:07;;;;;;;;;3.67;3.33;;;;;;;;5044046;27;113705;-72
2021/03/20 17:55:34;;;;;;;;;4.00;2.50;;;;;;;;5046471;27;113675;-75
2021/03/20 17:58:02;;;;;;;;;3.33;3.00;;;;;;;;5045591;27;112886;-73
2021/03/20 18:00:29;;;;;;;;;6.33;6.33;;;;;;;;5045735;27;113519;-75
2021/03/20 18:02:55;;;;;;;;;7.33;6.00;;;;;;;;5045515;27;114068;-79
2021/03/20 18:05:22;;;;;;;;;6.33;6.00;;;;;;;;5047285;27;111898;-73
2021/03/20 18:07:48;;;;;;;;;5.33;5.33;;;;;;;;5043785;27;113647;-73
2021/03/20 18:10:17;;;;;;;;;6.67;6.67;;;;;;;;5053477;27;114124;-74
2021/03/20 18:12:43;;;;;;;;;7.67;7.00;;;;;;;;5048604;27;113746;-73
2021/03/20 18:15:09;;;;;;;;;8.67;7.00;;;;;;;;5043451;27;115689;-73
2021/03/20 18:17:36;;;;;;;;;6.00;4.33;;;;;;;;5044208;27;113044;-72
2021/03/20 18:20:02;;;;;;;;;4.00;4.00;;;;;;;;5045169;27;113862;-72
2021/03/20 18:22:28;;;;;;;;;8.33;7.00;;;;;;;;5046220;27;115121;-72
2021/03/20 18:24:54;;;;;;;;;7.67;4.67;;;;;;;;5045866;27;111896;-77
2021/03/20 18:27:20;;;;;;;;;7.00;7.00;;;;;;;;5046349;27;113496;-73
2021/03/20 18:29:47;;;;;;;;;6.00;6.00;;;;;;;;5049596;27;114009;-72
2021/03/20 18:32:13;;;;;;;;;6.00;5.67;;;;;;;;5044449;27;115082;-74
2021/03/20 18:34:41;;;;;;;;;6.67;6.67;;;;;;;;5044232;27;114048;-74
2021/03/20 18:37:07;;;;;;;;;6.00;6.00;;;;;;;;5042890;27;111905;-79
2021/03/20 18:39:34;;;;;;;;;6.33;6.00;;;;;;;;5044227;27;114019;-79
2021/03/20 18:42:00;;;;;;;;;8.00;7.00;;;;;;;;5043204;27;114397;-74
2021/03/20 18:44:26;;;;;;;;;5.33;5.33;;;;;;;;5046263;27;111960;-77
2021/03/20 18:46:52;;;;;;;;;6.67;6.33;;;;;;;;5045902;27;113633;-80
2021/03/20 18:49:19;;;;;;;;;11.00;7.67;;;;;;;;5044952;27;113970;-75
2021/03/20 18:51:46;;;;;;;;;8.00;8.00;;;;;;;;5050174;27;113428;-83
2021/03/20 18:54:14;;;;;;;;;7.67;6.00;;;;;;;;5043263;27;115305;-77
2021/03/20 18:56:40;;;;;;;;;13.33;12.33;;;;;;;;5044947;27;112096;-73
2021/03/20 18:59:07;;;;;;;;;14.33;11.33;;;;;;;;5044504;27;114189;-73
2021/03/20 19:01:34;;;;;;;;;7.00;7.00;;;;;;;;5046151;27;114045;-71
2021/03/20 19:03:59;;;;;;;;;7.33;6.00;;;;;;;;5044420;27;112486;-71
2021/03/20 19:06:25;;;;;;;;;9.00;7.00;;;;;;;;5047604;27;113655;-71
2021/03/20 19:08:55;;;;;;;;;7.67;7.67;;;;;;;;5046994;27;113989;-73
2021/03/20 19:11:22;;;;;;;;;7.33;6.00;;;;;;;;5040494;27;111883;-74
2021/03/20 19:13:48;;;;;;;;;7.00;7.00;;;;;;;;5048934;27;114044;-76
2021/03/20 19:16:14;;;;;;;;;9.67;9.67;;;;;;;;5048787;27;111873;-74
2021/03/20 19:18:41;;;;;;;;;7.00;7.00;;;;;;;;5045567;27;113956;-74
2021/03/20 19:21:09;;;;;;;;;8.33;7.00;;;;;;;;5044079;27;114183;-72
2021/03/20 19:23:35;;;;;;;;;6.67;6.67;;;;;;;;5047756;27;112299;-71
2021/03/20 19:26:03;;;;;;;;;3.00;3.00;;;;;;;;5044890;27;113572;-70
2021/03/20 19:28:30;;;;;;;;;10.00;7.33;;;;;;;;5046376;27;114514;-81
2021/03/20 19:30:58;;;;;;;;;10.33;6.67;;;;;;;;5046028;27;112845;-71
2021/03/20 19:33:24;;;;;;;;;7.00;6.67;;;;;;;;5046077;27;114023;-71
2021/03/20 19:35:50;;;;;;;;;5.00;5.00;;;;;;;;5050106;27;114937;-69
2021/03/20 19:38:19;;;;;;;;;5.67;5.67;;;;;;;;5045446;27;113440;-69
2021/03/20 19:40:46;;;;;;;;;6.00;6.00;;;;;;;;5044782;27;112905;-70
2021/03/20 19:43:14;;;;;;;;;8.00;7.00;;;;;;;;5041874;27;112023;-73
2021/03/20 19:45:41;;;;;;;;;9.33;6.67;;;;;;;;5042537;27;113168;-72
2021/03/20 19:48:09;;;;;;;;;6.00;5.00;;;;;;;;5042376;27;113989;-74
2021/03/20 19:50:37;;;;;;;;;7.33;6.67;;;;;;;;5046507;27;112110;-75
2021/03/20 19:53:05;;;;;;;;;5.67;5.67;;;;;;;;5042336;27;113549;-80
2021/03/20 19:55:32;;;;;;;;;6.67;5.67;;;;;;;;5045652;27;114205;-79
2021/03/20 19:57:58;;;;;;;;;4.67;4.67;;;;;;;;5046195;27;112114;-78
2021/03/20 20:00:25;;;;;;;;;8.00;5.00;;;;;;;;5042681;27;113958;-74
2021/03/20 20:02:51;;;;;;;;;4.00;3.67;;;;;;;;5043772;27;112351;-72
2021/03/20 20:05:18;;;;;;;;;6.67;5.00;;;;;;;;5044671;27;113559;-72
2021/03/20 20:07:45;;;;;;;;;6.00;6.00;;;;;;;;5045428;27;114121;-73
2021/03/20 20:10:15;;;;;;;;;6.00;6.00;;;;;;;;5042954;27;112550;-72
2021/03/20 20:12:42;;;;;;;;;6.33;6.33;;;;;;;;5048751;27;115942;-81
2021/03/20 20:15:09;;;;;;;;;6.00;5.00;;;;;;;;5042636;27;116657;-74
2021/03/20 20:17:36;;;;;;;;;8.00;6.67;;;;;;;;5043760;27;111983;-75
2021/03/20 20:20:04;;;;;;;;;6.67;6.67;;;;;;;;5049280;27;113578;-80
2021/03/20 20:22:30;;;;;;;;;7.00;6.00;;;;;;;;5046583;27;111865;-86
2021/03/20 20:24:56;;;;;;;;;7.33;7.00;;;;;;;;5048996;27;113291;-81
2021/03/20 20:27:22;;;;;;;;;7.67;7.00;;;;;;;;5044952;27;112942;-88
2021/03/20 20:29:48;;;;;;;;;11.00;7.67;;;;;;;;5047244;27;113048;-84
2021/03/20 20:32:15;;;;;;;;;7.00;6.00;;;;;;;;5050229;27;113449;-76
2021/03/20 20:34:45;;;;;;;;;6.00;6.00;;;;;;;;5050221;27;114044;-80
2021/03/20 20:37:11;;;;;;;;;7.33;7.00;;;;;;;;5049114;27;111946;-83
2021/03/20 20:39:37;;;;;;;;;7.00;6.00;;;;;;;;5049933;27;113484;-75
2021/03/20 20:42:04;;;;;;;;;7.00;7.00;;;;;;;;5049737;27;113002;-79
2021/03/20 20:44:31;;;;;;;;;7.00;7.00;;;;;;;;5050672;27;113505;-81
2021/03/20 20:47:02;;;;;;;;;6.67;6.67;;;;;;;;5050640;27;114006;-76
2021/03/20 20:49:28;;;;;;;;;9.33;7.67;;;;;;;;5047313;27;112176;-77
2021/03/20 20:51:55;;;;;;;;;5.33;4.00;;;;;;;;5048230;27;114158;-77
2021/03/20 20:54:21;;;;;;;;;6.33;5.33;;;;;;;;5049283;27;114037;-79
2021/03/20 20:56:47;;;;;;;;;9.00;4.00;;;;;;;;5048341;27;112780;-77
2021/03/20 20:59:13;;;;;;;;;5.67;4.00;;;;;;;;5052112;27;113442;-78
2021/03/20 21:01:40;;;;;;;;;1.67;1.67;;;;;;;;5051539;27;114169;-78
2021/03/20 21:04:06;;;;;;;;;7.67;5.00;;;;;;;;5040341;27;113000;-79
2021/03/20 21:06:32;;;;;;;;;7.67;5.67;;;;;;;;5046233;27;114447;-78
2021/03/20 21:08:59;;;;;;;;;4.67;4.00;;;;;;;;5048490;27;111938;-74
2021/03/20 21:11:25;;;;;;;;;5.67;4.00;;;;;;;;5046128;27;113510;-78
2021/03/20 21:13:51;;;;;;;;;7.33;4.00;;;;;;;;5043141;27;113109;-79
2021/03/20 21:16:17;;;;;;;;;4.67;4.67;;;;;;;;5050337;27;112287;-80
2021/03/20 21:18:43;;;;;;;;;2.00;2.00;;;;;;;;5047406;27;113262;-80
2021/03/20 21:21:09;;;;;;;;;6.67;4.00;;;;;;;;5046374;27;114786;-78
2021/03/20 21:23:35;;;;;;;;;8.00;7.00;;;;;;;;5049401;27;112382;-78
2021/03/20 21:26:02;;;;;;;;;4.67;2.00;;;;;;;;5045835;27;114058;-75
2021/03/20 21:28:30;;;;;;;;;6.33;4.33;;;;;;;;5049923;27;112575;-76
2021/03/20 21:30:57;;;;;;;;;6.33;5.67;;;;;;;;5046912;27;113508;-75
2021/03/20 21:33:23;;;;;;;;;4.33;4.33;;;;;;;;5044429;27;114251;-75
2021/03/20 21:35:49;;;;;;;;;7.00;5.00;;;;;;;;5049557;27;114514;-75
2021/03/20 21:38:15;;;;;;;;;4.00;4.00;;;;;;;;5048471;27;113475;-74
2021/03/20 21:40:42;;;;;;;;;4.00;4.00;;;;;;;;5044426;27;114571;-73
2021/03/20 21:43:09;;;;;;;;;5.00;4.00;;;;;;;;5043954;27;112311;-73
2021/03/20 21:45:35;;;;;;;;;7.00;5.00;;;;;;;;5050103;27;116541;-72
2021/03/20 21:48:01;;;;;;;;;5.00;5.00;;;;;;;;5044257;27;112272;-74
2021/03/20 21:50:28;;;;;;;;;5.00;5.00;;;;;;;;5044935;27;113471;-74
2021/03/20 21:52:54;;;;;;;;;7.00;7.00;;;;;;;;5040640;27;113306;-73
2021/03/20 21:55:21;;;;;;;;;8.00;6.33;;;;;;;;5047351;27;112003;-73
2021/03/20 21:57:48;;;;;;;;;5.00;5.00;;;;;;;;5051698;27;113819;-74
2021/03/20 22:00:16;;;;;;;;;4.33;4.00;;;;;;;;5044568;27;113994;-74
2021/03/20 22:02:43;;;;;;;;;6.33;5.00;;;;;;;;5048928;27;112483;-73
2021/03/20 22:05:09;;;;;;;;;4.33;4.00;;;;;;;;5045309;27;113793;-72
2021/03/20 22:07:35;;;;;;;;;7.33;4.00;;;;;;;;5050960;27;114491;-73
2021/03/20 22:10:01;;;;;;;;;2.00;2.00;;;;;;;;5045511;27;113788;-74
2021/03/20 22:12:28;;;;;;;;;4.00;3.33;;;;;;;;5046540;27;113979;-73
2021/03/20 22:14:54;;;;;;;;;2.00;2.00;;;;;;;;5046348;27;111982;-74
2021/03/20 22:17:21;;;;;;;;;4.00;2.00;;;;;;;;5047388;27;113817;-74
2021/03/20 22:19:48;;;;;;;;;2.00;2.00;;;;;;;;5048208;27;114108;-73
2021/03/20 22:22:14;;;;;;;;;5.00;3.33;;;;;;;;5046154;27;111947;-73
2021/03/20 22:24:40;;;;;;;;;5.67;2.67;;;;;;;;5049755;27;113519;-72
2021/03/20 22:27:06;;;;;;;;;4.00;2.67;;;;;;;;5046272;27;114276;-74
2021/03/20 22:29:32;;;;;;;;;4.67;3.33;;;;;;;;5052553;27;112026;-73
2021/03/20 22:31:58;;;;;;;;;1.00;1.00;;;;;;;;5046977;27;114424;-72
2021/03/20 22:34:25;;;;;;;;;5.00;2.67;;;;;;;;5047790;27;111948;-73
2021/03/20 22:36:51;;;;;;;;;5.00;4.00;;;;;;;;5048736;27;113386;-74
2021/03/20 22:39:17;;;;;;;;;2.00;2.00;;;;;;;;5046007;27;113969;-74
2021/03/20 22:41:44;;;;;;;;;2.00;2.00;;;;;;;;5049171;27;111930;-72
2021/03/20 22:44:10;;;;;;;;;4.33;1.67;;;;;;;;5045407;27;113704;-73
2021/03/20 22:46:36;;;;;;;;;5.67;4.00;;;;;;;;5048259;27;113921;-73
2021/03/20 22:49:02;;;;;;;;;5.00;2.00;;;;;;;;5050788;27;112258;-72
2021/03/20 22:51:29;;;;;;;;;4.00;2.00;;;;;;;;5047067;27;114108;-72
2021/03/20 22:53:55;;;;;;;;;4.67;4.00;;;;;;;;5048375;27;112621;-74
2021/03/20 22:56:21;;;;;;;;;6.33;4.67;;;;;;;;5046798;27;113654;-73
2021/03/20 22:58:47;;;;;;;;;4.00;2.00;;;;;;;;5048051;27;114492;-73
2021/03/20 23:01:14;;;;;;;;;2.00;2.00;;;;;;;;5045413;27;113974;-73
2021/03/20 23:03:45;;;;;;;;;4.00;2.00;;;;;;;;5045317;27;113601;-73
2021/03/20 23:06:12;;;;;;;;;2.00;2.00;;;;;;;;5045728;27;114126;-73
2021/03/20 23:08:41;;;;;;;;;3.33;3.33;;;;;;;;5049443;27;111953;-73
2021/03/20 23:11:10;;;;;;;;;8.00;5.00;;;;;;;;5049129;27;114135;-74